Time;durP1;ratioP1;P1;durP2;ratioP2;P2;SDS_P1;SDS_P2;PMS_P1;PMS_P2;Temp;Humidity;BMP_temperature;BMP_pressure;BME280_temperature;BME280_humidity;BME280_pressure;Samples;Min_cycle;Max_cycle;Signal;HPM_P1;HPM_P2
2022/07/28 00:01:54;;;;;;;0.10;0.10;;;13.50;99.90;;;;;;5003948;28;20179;-84
2022/07/28 00:04:20;;;;;;;0.10;0.10;;;13.60;99.90;;;;;;5027139;28;20766;-85
2022/07/28 00:06:45;;;;;;;0.20;0.20;;;13.70;99.90;;;;;;5026289;28;20191;-84
2022/07/28 00:09:11;;;;;;;0.10;0.10;;;13.70;99.90;;;;;;5020061;28;20652;-84
2022/07/28 00:11:36;;;;;;;0.10;0.10;;;13.70;99.90;;;;;;5019735;28;20281;-84
2022/07/28 00:14:02;;;;;;;0.10;0.10;;;13.70;99.90;;;;;;5025410;28;20262;-85
2022/07/28 00:16:27;;;;;;;0.10;0.10;;;13.70;99.90;;;;;;5019406;28;20296;-84
2022/07/28 00:18:53;;;;;;;0.10;0.10;;;13.70;99.90;;;;;;5021491;28;20214;-85
2022/07/28 00:21:18;;;;;;;0.10;0.10;;;13.70;99.90;;;;;;5021365;28;20645;-85
2022/07/28 00:23:44;;;;;;;0.10;0.10;;;13.70;99.90;;;;;;5000874;28;20223;-85
2022/07/28 00:26:11;;;;;;;0.10;0.10;;;13.70;99.90;;;;;;5011123;28;20290;-85
2022/07/28 00:28:36;;;;;;;0.10;0.10;;;13.60;99.90;;;;;;5004498;28;20746;-84
2022/07/28 00:31:03;;;;;;;0.10;0.10;;;13.50;99.90;;;;;;4999797;28;20572;-85
2022/07/28 00:33:29;;;;;;;0.10;0.10;;;13.40;99.90;;;;;;5021630;28;20192;-85
2022/07/28 00:35:54;;;;;;;0.10;0.10;;;13.30;99.90;;;;;;5028522;28;20550;-85
2022/07/28 00:38:20;;;;;;;0.10;0.10;;;13.10;99.90;;;;;;5023522;28;20210;-84
2022/07/28 00:43:29;;;;;;;0.10;0.10;;;13.00;99.90;;;;;;5021888;28;20748;-85
2022/07/28 00:45:55;;;;;;;0.10;0.10;;;12.80;99.90;;;;;;5019621;28;20537;-84
2022/07/28 00:48:20;;;;;;;0.10;0.10;;;12.80;99.90;;;;;;5013845;28;20199;-84
2022/07/28 00:50:46;;;;;;;0.10;0.10;;;12.70;99.90;;;;;;5005670;28;20242;-84
2022/07/28 00:53:11;;;;;;;0.10;0.10;;;12.60;99.90;;;;;;5000351;28;20282;-84
2022/07/28 00:55:38;;;;;;;0.10;0.10;;;12.60;99.90;;;;;;5022971;28;20188;-85
2022/07/28 00:58:04;;;;;;;0.10;0.10;;;12.50;99.90;;;;;;5014445;28;20241;-85
2022/07/28 01:00:29;;;;;;;0.10;0.10;;;12.30;99.90;;;;;;5002662;28;20469;-84
2022/07/28 01:02:55;;;;;;;0.10;0.10;;;12.20;99.90;;;;;;5004077;28;20443;-85
2022/07/28 01:05:21;;;;;;;0.20;0.20;;;12.20;99.90;;;;;;5004638;28;20287;-85
2022/07/28 01:08:16;;;;;;;0.17;0.17;;;12.20;99.90;;;;;;5002146;28;20253;-85
2022/07/28 01:11:09;;;;;;;0.20;0.20;;;12.30;99.90;;;;;;4988911;28;20880;-85
2022/07/28 01:13:47;;;;;;;0.10;0.10;;;12.40;99.90;;;;;;5002295;28;20443;-85
2022/07/28 01:16:13;;;;;;;0.10;0.10;;;12.50;99.90;;;;;;5000777;28;20457;-84
2022/07/28 01:18:46;;;;;;;0.20;0.20;;;12.40;99.90;;;;;;5005502;28;20451;-84
2022/07/28 01:21:14;;;;;;;0.13;0.13;;;12.40;99.90;;;;;;5004904;28;20933;-84
2022/07/28 01:24:08;;;;;;;0.10;0.10;;;12.10;99.90;;;;;;5002952;28;20526;-84
2022/07/28 01:26:52;;;;;;;0.20;0.20;;;12.00;99.90;;;;;;4996778;28;21422;-84
2022/07/28 01:29:50;;;;;;;0.20;0.20;;;12.10;99.90;;;;;;5004275;28;20817;-85
2022/07/28 01:32:20;;;;;;;0.10;0.10;;;12.00;99.90;;;;;;4972843;28;20447;-84
2022/07/28 01:35:04;;;;;;;0.20;0.20;;;12.20;99.90;;;;;;4994042;28;20436;-84
2022/07/28 01:37:31;;;;;;;0.20;0.20;;;12.00;99.90;;;;;;4994884;28;20443;-84
2022/07/28 01:40:01;;;;;;;0.20;0.20;;;11.90;99.90;;;;;;5002554;28;20431;-84
2022/07/28 01:42:34;;;;;;;0.20;0.20;;;11.80;99.90;;;;;;5004971;28;20454;-85
2022/07/28 01:45:00;;;;;;;0.20;0.20;;;11.90;99.90;;;;;;5002701;28;20539;-84
2022/07/28 01:47:28;;;;;;;0.20;0.20;;;12.00;99.90;;;;;;5007557;28;20450;-85
2022/07/28 01:49:58;;;;;;;0.20;0.20;;;11.80;99.90;;;;;;5007606;28;20833;-84
2022/07/28 01:52:25;;;;;;;0.20;0.20;;;11.90;99.90;;;;;;5006945;28;20447;-84
2022/07/28 01:54:52;;;;;;;0.20;0.20;;;11.80;99.90;;;;;;5014224;28;20440;-84
2022/07/28 01:57:20;;;;;;;0.20;0.20;;;11.70;99.90;;;;;;5001346;28;20502;-84
2022/07/28 01:59:47;;;;;;;0.10;0.10;;;11.80;99.90;;;;;;5016075;28;20474;-85
2022/07/28 02:02:16;;;;;;;0.10;0.10;;;11.70;99.90;;;;;;5014352;28;20457;-85
2022/07/28 02:04:43;;;;;;;0.20;0.20;;;11.60;99.90;;;;;;5028437;28;20500;-85
2022/07/28 02:07:10;;;;;;;0.20;0.20;;;11.50;99.90;;;;;;5018819;28;20481;-84
2022/07/28 02:09:37;;;;;;;0.20;0.20;;;11.50;99.90;;;;;;5000574;28;20993;-84
2022/07/28 02:12:04;;;;;;;0.20;0.20;;;11.40;99.90;;;;;;5009680;28;20444;-84
2022/07/28 02:14:31;;;;;;;0.20;0.20;;;11.40;99.90;;;;;;5017520;28;20450;-84
2022/07/28 02:17:00;;;;;;;0.20;0.20;;;11.40;99.90;;;;;;5006553;28;20857;-85
2022/07/28 02:19:28;;;;;;;0.20;0.20;;;11.40;99.90;;;;;;5019786;28;20929;-85
2022/07/28 02:21:54;;;;;;;0.20;0.20;;;11.30;99.90;;;;;;5019754;28;20443;-85
2022/07/28 02:24:25;;;;;;;0.20;0.20;;;11.30;99.90;;;;;;5007692;28;20438;-85
2022/07/28 02:26:58;;;;;;;0.20;0.20;;;11.20;99.90;;;;;;5008993;28;21043;-85
2022/07/28 02:29:25;;;;;;;0.20;0.20;;;11.10;99.90;;;;;;5025240;28;20454;-85
2022/07/28 02:32:06;;;;;;;0.20;0.20;;;11.20;99.90;;;;;;5004310;28;20450;-85
2022/07/28 02:34:32;;;;;;;0.20;0.20;;;11.10;99.90;;;;;;5021821;28;20434;-83
2022/07/28 02:37:01;;;;;;;0.20;0.20;;;11.10;99.90;;;;;;5023822;28;20535;-84
2022/07/28 02:39:39;;;;;;;0.20;0.20;;;11.30;99.90;;;;;;5015216;28;20837;-84
2022/07/28 02:42:12;;;;;;;0.20;0.20;;;11.50;99.90;;;;;;5029078;28;20973;-84
2022/07/28 02:44:43;;;;;;;0.20;0.20;;;11.40;99.90;;;;;;5028803;28;20493;-84
2022/07/28 02:47:13;;;;;;;0.20;0.20;;;11.50;99.90;;;;;;5026036;28;20815;-85
2022/07/28 02:49:40;;;;;;;0.20;0.20;;;11.60;99.90;;;;;;5020724;28;20471;-85
2022/07/28 02:52:07;;;;;;;0.20;0.20;;;11.80;99.90;;;;;;4995759;28;20447;-84
2022/07/28 02:54:34;;;;;;;0.20;0.20;;;11.70;99.90;;;;;;5015996;28;20450;-85
2022/07/28 02:57:01;;;;;;;0.20;0.20;;;11.60;99.90;;;;;;5023551;28;20446;-85
2022/07/28 02:59:27;;;;;;;0.20;0.20;;;11.60;99.90;;;;;;5014609;28;20837;-84
2022/07/28 03:01:54;;;;;;;0.20;0.20;;;11.50;99.90;;;;;;5011745;28;20443;-84
2022/07/28 03:04:55;;;;;;;0.20;0.20;;;11.70;99.90;;;;;;5004490;28;20494;-84
2022/07/28 03:07:07;;;;;;;0.20;0.20;;;11.80;99.90;;;;;;5000075;28;20459;-85
2022/07/28 03:09:41;;;;;;;0.20;0.20;;;11.60;99.90;;;;;;4991534;28;20447;-84
2022/07/28 03:12:08;;;;;;;0.20;0.20;;;11.40;99.90;;;;;;5005680;28;20478;-85
2022/07/28 03:14:33;;;;;;;0.20;0.20;;;11.40;99.90;;;;;;5007800;28;20440;-85
2022/07/28 03:16:59;;;;;;;0.20;0.20;;;11.10;99.90;;;;;;5007109;28;20822;-85
2022/07/28 03:19:24;;;;;;;0.20;0.20;;;10.90;99.90;;;;;;5006325;28;20188;-86
2022/07/28 03:21:51;;;;;;;0.20;0.20;;;10.80;99.90;;;;;;5003537;28;20317;-85
2022/07/28 03:24:21;;;;;;;0.20;0.20;;;10.60;99.90;;;;;;5019896;28;20183;-86
2022/07/28 03:26:56;;;;;;;0.20;0.20;;;10.60;99.90;;;;;;5013753;28;20462;-85
2022/07/28 03:29:23;;;;;;;0.20;0.20;;;10.60;99.90;;;;;;5009590;28;20493;-85
2022/07/28 03:31:51;;;;;;;0.20;0.20;;;10.80;99.90;;;;;;5016578;28;20468;-85
2022/07/28 03:34:16;;;;;;;0.20;0.20;;;10.70;99.90;;;;;;5004236;28;20521;-85
2022/07/28 03:36:46;;;;;;;0.20;0.20;;;10.70;99.90;;;;;;5005097;28;20462;-86
2022/07/28 03:39:15;;;;;;;0.20;0.20;;;10.60;99.90;;;;;;4996055;28;20240;-85
2022/07/28 03:41:42;;;;;;;0.20;0.20;;;10.50;99.90;;;;;;5009265;28;20451;-86
2022/07/28 03:44:09;;;;;;;0.20;0.20;;;10.40;99.90;;;;;;5014240;28;20467;-84
2022/07/28 03:46:35;;;;;;;0.20;0.20;;;10.80;99.90;;;;;;5006129;28;20475;-85
2022/07/28 03:49:01;;;;;;;0.20;0.20;;;10.90;99.90;;;;;;5013739;28;20451;-84
2022/07/28 03:51:28;;;;;;;0.20;0.20;;;10.70;99.90;;;;;;5001260;28;20235;-85
2022/07/28 03:53:54;;;;;;;0.20;0.20;;;10.60;99.90;;;;;;4997064;28;20196;-85
2022/07/28 03:56:19;;;;;;;0.20;0.20;;;10.60;99.90;;;;;;4998636;28;20444;-86
2022/07/28 03:58:45;;;;;;;0.20;0.20;;;10.90;99.90;;;;;;5004330;28;20370;-85
2022/07/28 04:01:10;;;;;;;0.20;0.20;;;10.90;99.90;;;;;;4999365;28;20183;-85
2022/07/28 04:03:36;;;;;;;0.20;0.20;;;11.00;99.90;;;;;;5022006;28;20218;-85
2022/07/28 04:06:01;;;;;;;0.20;0.20;;;11.00;99.90;;;;;;5021187;28;20211;-85
2022/07/28 04:08:27;;;;;;;0.20;0.20;;;11.20;99.90;;;;;;5019195;28;20279;-85
2022/07/28 04:10:52;;;;;;;0.20;0.20;;;11.20;99.90;;;;;;5026344;28;20223;-85
2022/07/28 04:13:19;;;;;;;0.20;0.20;;;11.30;99.90;;;;;;5020184;28;20179;-85
2022/07/28 04:15:44;;;;;;;0.20;0.20;;;11.40;99.90;;;;;;5025429;28;20188;-85
2022/07/28 04:18:10;;;;;;;0.20;0.20;;;11.40;99.90;;;;;;5002554;28;20446;-84
2022/07/28 04:20:36;;;;;;;0.20;0.20;;;11.50;99.90;;;;;;5021062;28;20398;-85
2022/07/28 04:23:02;;;;;;;0.20;0.20;;;11.50;99.90;;;;;;5016957;28;20286;-84
2022/07/28 04:25:27;;;;;;;0.20;0.20;;;11.60;99.90;;;;;;5016511;28;20222;-84
2022/07/28 04:27:54;;;;;;;0.20;0.20;;;11.70;99.90;;;;;;5000479;28;20222;-85
2022/07/28 04:30:23;;;;;;;0.20;0.20;;;11.90;99.90;;;;;;5018513;28;20801;-85
2022/07/28 04:32:50;;;;;;;0.17;0.17;;;11.70;99.90;;;;;;5024201;28;20453;-85
2022/07/28 04:35:17;;;;;;;0.20;0.20;;;11.80;99.90;;;;;;5016156;28;20459;-85
2022/07/28 04:37:43;;;;;;;0.20;0.20;;;11.70;99.90;;;;;;5018319;28;20476;-85
2022/07/28 04:40:10;;;;;;;0.20;0.20;;;11.80;99.90;;;;;;5018414;28;20511;-85
2022/07/28 04:42:37;;;;;;;0.10;0.10;;;11.80;99.90;;;;;;5018465;28;20450;-85
2022/07/28 04:45:05;;;;;;;0.20;0.20;;;11.90;99.90;;;;;;5017568;28;20450;-85
2022/07/28 04:47:30;;;;;;;0.20;0.20;;;11.80;99.90;;;;;;5010227;28;20534;-85
2022/07/28 04:49:56;;;;;;;0.20;0.20;;;11.90;99.90;;;;;;5022146;28;20576;-85
2022/07/28 04:52:22;;;;;;;0.20;0.20;;;12.00;99.90;;;;;;5026267;28;20199;-85
2022/07/28 04:54:49;;;;;;;0.13;0.13;;;12.00;99.90;;;;;;5013576;28;20441;-86
2022/07/28 04:57:15;;;;;;;0.20;0.20;;;12.10;99.90;;;;;;5018135;28;20451;-85
2022/07/28 04:59:41;;;;;;;0.20;0.20;;;12.20;99.90;;;;;;5007199;28;20471;-86
2022/07/28 05:02:07;;;;;;;0.20;0.20;;;12.20;99.90;;;;;;4995671;28;20537;-85
2022/07/28 05:04:32;;;;;;;0.20;0.20;;;12.20;99.90;;;;;;5012090;28;20529;-86
2022/07/28 05:06:58;;;;;;;0.10;0.10;;;12.20;99.90;;;;;;4992846;28;20196;-85
2022/07/28 05:09:25;;;;;;;0.10;0.10;;;12.40;99.90;;;;;;4985310;28;20209;-84
2022/07/28 05:11:51;;;;;;;0.10;0.10;;;12.50;99.90;;;;;;5000852;28;20813;-85
2022/07/28 05:14:16;;;;;;;0.20;0.20;;;12.50;99.90;;;;;;5009859;28;20191;-85
2022/07/28 05:16:43;;;;;;;0.10;0.10;;;12.60;99.90;;;;;;4999684;28;20905;-84
2022/07/28 05:19:09;;;;;;;0.10;0.10;;;12.70;99.90;;;;;;5006389;28;20184;-84
2022/07/28 05:21:34;;;;;;;0.20;0.20;;;12.70;99.90;;;;;;5015739;28;20450;-85
2022/07/28 05:24:00;;;;;;;0.10;0.10;;;12.80;99.90;;;;;;5010540;28;20833;-84
2022/07/28 05:26:27;;;;;;;0.10;0.10;;;12.80;99.90;;;;;;4992032;28;20184;-85
2022/07/28 05:28:53;;;;;;;0.10;0.10;;;12.90;99.90;;;;;;4990942;28;20839;-84
2022/07/28 05:31:19;;;;;;;0.10;0.10;;;12.80;99.90;;;;;;5009811;28;20497;-84
2022/07/28 05:33:44;;;;;;;0.10;0.10;;;12.90;99.90;;;;;;5003331;28;20511;-84
2022/07/28 05:36:10;;;;;;;0.10;0.10;;;12.90;99.90;;;;;;5006088;28;20192;-84
2022/07/28 05:38:36;;;;;;;0.10;0.10;;;12.90;99.90;;;;;;4998721;28;20200;-86
2022/07/28 05:41:01;;;;;;;0.10;0.10;;;12.90;99.90;;;;;;4998756;28;20945;-85
2022/07/28 05:43:27;;;;;;;0.10;0.10;;;12.90;99.90;;;;;;5008914;28;20192;-85
2022/07/28 05:45:52;;;;;;;0.10;0.10;;;13.10;99.90;;;;;;4995548;28;20930;-86
2022/07/28 05:48:19;;;;;;;0.10;0.10;;;13.20;99.90;;;;;;5011770;28;20196;-85
2022/07/28 05:50:45;;;;;;;0.10;0.10;;;13.30;99.90;;;;;;5008572;28;20676;-85
2022/07/28 05:53:11;;;;;;;0.10;0.10;;;13.40;99.90;;;;;;5011027;28;20450;-85
2022/07/28 05:55:36;;;;;;;0.10;0.10;;;13.60;99.90;;;;;;5006432;28;20477;-85
2022/07/28 05:58:02;;;;;;;0.10;0.10;;;13.60;99.90;;;;;;5013487;28;20188;-85
2022/07/28 06:00:27;;;;;;;0.10;0.10;;;13.60;99.90;;;;;;5005543;28;20206;-84
2022/07/28 06:02:53;;;;;;;0.10;0.10;;;13.70;99.90;;;;;;5007139;28;20719;-88
2022/07/28 06:05:21;;;;;;;0.10;0.10;;;14.00;99.90;;;;;;5008152;28;20188;-88
2022/07/28 06:07:48;;;;;;;0.10;0.10;;;14.30;99.90;;;;;;5009170;28;20219;-87
2022/07/28 06:10:16;;;;;;;0.10;0.10;;;14.40;99.90;;;;;;4997005;28;20491;-88
2022/07/28 06:12:47;;;;;;;0.10;0.10;;;14.50;99.90;;;;;;5012420;28;20482;-88
2022/07/28 06:15:14;;;;;;;0.10;0.10;;;14.70;99.90;;;;;;5003236;28;20501;-89
2022/07/28 06:17:41;;;;;;;0.10;0.10;;;14.80;99.90;;;;;;5010736;28;20490;-88
2022/07/28 06:20:08;;;;;;;0.10;0.10;;;14.70;99.90;;;;;;5013057;28;20506;-89
2022/07/28 06:22:44;;;;;;;0.10;0.10;;;14.70;99.90;;;;;;5008980;28;20447;-88
2022/07/28 06:25:13;;;;;;;0.10;0.10;;;14.80;99.90;;;;;;4991666;28;20450;-88
2022/07/28 06:27:38;;;;;;;0.10;0.10;;;14.80;99.90;;;;;;5021037;28;20442;-88
2022/07/28 06:30:05;;;;;;;0.10;0.10;;;15.00;99.90;;;;;;5004251;28;20599;-89
2022/07/28 06:32:30;;;;;;;0.10;0.10;;;15.20;99.90;;;;;;5012084;28;20192;-88
2022/07/28 06:34:56;;;;;;;0.10;0.10;;;15.10;99.90;;;;;;5008754;28;20935;-85
2022/07/28 06:37:21;;;;;;;0.10;0.10;;;15.20;99.90;;;;;;4991635;28;20279;-87
2022/07/28 06:39:47;;;;;;;0.10;0.10;;;15.10;99.90;;;;;;5005257;28;20986;-86
2022/07/28 06:42:12;;;;;;;0.10;0.10;;;15.10;99.90;;;;;;5007054;28;20188;-86
2022/07/28 06:44:38;;;;;;;0.10;0.10;;;15.20;99.90;;;;;;5010613;28;20196;-86
2022/07/28 06:47:03;;;;;;;0.10;0.10;;;15.20;99.90;;;;;;5009607;28;20700;-88
2022/07/28 06:49:29;;;;;;;0.10;0.10;;;15.30;99.90;;;;;;5008587;28;20231;-88
2022/07/28 06:51:55;;;;;;;0.10;0.10;;;15.30;99.90;;;;;;5011161;28;20680;-87
2022/07/28 06:54:20;;;;;;;0.10;0.10;;;15.30;99.90;;;;;;5010398;28;20267;-88
2022/07/28 06:56:46;;;;;;;0.10;0.10;;;15.20;99.90;;;;;;5003009;28;20189;-89
2022/07/28 06:59:13;;;;;;;0.10;0.10;;;15.30;99.90;;;;;;5007036;28;20234;-88
2022/07/28 07:01:39;;;;;;;0.10;0.10;;;15.30;99.90;;;;;;5007169;28;20208;-87
2022/07/28 07:04:06;;;;;;;0.10;0.10;;;15.40;99.90;;;;;;5009331;28;20486;-88
2022/07/28 07:06:32;;;;;;;0.10;0.10;;;15.70;99.90;;;;;;5014903;28;20268;-88
2022/07/28 07:08:58;;;;;;;0.10;0.10;;;16.00;99.90;;;;;;5013968;28;21047;-88
2022/07/28 07:11:25;;;;;;;0.10;0.10;;;16.10;99.90;;;;;;5015521;28;20486;-87
2022/07/28 07:13:51;;;;;;;0.10;0.10;;;16.20;99.90;;;;;;5018599;28;20250;-87
2022/07/28 07:16:17;;;;;;;0.10;0.10;;;16.20;99.90;;;;;;5017803;28;20897;-86
2022/07/28 07:18:42;;;;;;;0.10;0.10;;;16.30;99.90;;;;;;5009394;28;20537;-87
2022/07/28 07:21:08;;;;;;;0.10;0.10;;;16.10;99.90;;;;;;5012409;28;20191;-85
2022/07/28 07:23:34;;;;;;;0.10;0.10;;;16.00;99.90;;;;;;5012151;28;20185;-87
2022/07/28 07:26:00;;;;;;;0.10;0.10;;;16.00;99.90;;;;;;5009163;28;20271;-88
2022/07/28 07:28:26;;;;;;;0.10;0.10;;;16.10;99.90;;;;;;5008861;28;20446;-87
2022/07/28 07:30:51;;;;;;;0.10;0.10;;;16.30;99.90;;;;;;5021062;28;20493;-87
2022/07/28 07:33:17;;;;;;;0.10;0.10;;;16.30;99.90;;;;;;5010703;28;20192;-88
2022/07/28 07:35:42;;;;;;;0.10;0.10;;;16.30;99.90;;;;;;5003915;28;20185;-89
2022/07/28 07:38:08;;;;;;;0.10;0.10;;;16.00;99.90;;;;;;4999756;28;20204;-89
2022/07/28 07:40:34;;;;;;;0.10;0.10;;;16.30;99.90;;;;;;5002784;28;20207;-86
2022/07/28 07:42:59;;;;;;;0.03;0.03;;;16.40;99.90;;;;;;5021382;28;20568;-89
2022/07/28 07:45:25;;;;;;;0.10;0.10;;;16.50;99.90;;;;;;5013544;28;20502;-88
2022/07/28 07:47:50;;;;;;;0.10;0.10;;;16.60;99.90;;;;;;5004271;28;20208;-90
2022/07/28 07:50:16;;;;;;;0.10;0.10;;;16.40;99.90;;;;;;5007706;28;20203;-88
2022/07/28 07:52:41;;;;;;;0.10;0.10;;;16.40;99.90;;;;;;5009435;28;20184;-89
2022/07/28 07:55:07;;;;;;;0.10;0.10;;;16.30;99.90;;;;;;5015622;28;20553;-89
2022/07/28 07:57:33;;;;;;;0.10;0.10;;;16.40;99.90;;;;;;5007171;28;20196;-87
2022/07/28 07:59:58;;;;;;;0.10;0.10;;;16.40;99.90;;;;;;5023477;28;20585;-87
2022/07/28 08:02:24;;;;;;;0.10;0.10;;;16.30;99.90;;;;;;5024376;28;20528;-88
2022/07/28 08:04:49;;;;;;;0.10;0.10;;;16.40;99.90;;;;;;5005791;28;20182;-88
2022/07/28 08:07:15;;;;;;;0.10;0.10;;;16.70;99.90;;;;;;5030111;28;20198;-88
2022/07/28 08:09:40;;;;;;;0.10;0.10;;;16.80;99.90;;;;;;5020937;28;20604;-89
2022/07/28 08:12:06;;;;;;;0.10;0.10;;;16.90;99.90;;;;;;5030139;28;20278;-89
2022/07/28 08:14:32;;;;;;;0.10;0.10;;;17.20;99.90;;;;;;5025767;28;20187;-93
2022/07/28 08:16:58;;;;;;;0.10;0.10;;;17.30;99.90;;;;;;5026925;28;20659;-92
2022/07/28 08:19:24;;;;;;;0.10;0.10;;;17.40;99.90;;;;;;5023995;28;20186;-91
2022/07/28 08:21:51;;;;;;;0.10;0.10;;;17.40;99.90;;;;;;5023075;28;20439;-92
2022/07/28 08:24:16;;;;;;;0.10;0.10;;;17.30;99.90;;;;;;5012154;28;20439;-92
2022/07/28 08:26:42;;;;;;;0.10;0.10;;;17.20;99.90;;;;;;5010233;28;20442;-93
2022/07/28 08:29:08;;;;;;;0.10;0.10;;;17.10;99.90;;;;;;5025008;28;20203;-89
2022/07/28 08:31:33;;;;;;;0.10;0.10;;;17.10;99.90;;;;;;5033867;28;20226;-92
2022/07/28 08:34:00;;;;;;;0.10;0.10;;;17.20;99.90;;;;;;5053113;28;20424;-92
2022/07/28 08:36:25;;;;;;;0.10;0.10;;;16.80;99.90;;;;;;5028999;28;20190;-92
2022/07/28 08:38:51;;;;;;;0.10;0.10;;;16.90;99.90;;;;;;5027194;28;20930;-92
2022/07/28 08:41:25;;;;;;;0.10;0.10;;;17.00;99.90;;;;;;5029915;28;20184;-93
2022/07/28 08:43:53;;;;;;;0.10;0.10;;;17.20;99.90;;;;;;5042849;28;20196;-92
2022/07/28 08:46:20;;;;;;;0.10;0.10;;;17.40;99.90;;;;;;5023975;28;20443;-91
2022/07/28 08:48:47;;;;;;;0.10;0.10;;;17.10;99.90;;;;;;4995378;28;20431;-91
2022/07/28 08:51:14;;;;;;;0.10;0.10;;;17.40;99.90;;;;;;5029416;28;21146;-91
2022/07/28 08:53:41;;;;;;;0.10;0.10;;;17.70;99.90;;;;;;5027829;28;20525;-92
2022/07/28 08:56:10;;;;;;;0.10;0.10;;;17.80;99.90;;;;;;5020445;28;20454;-92
2022/07/28 08:58:36;;;;;;;0.10;0.10;;;17.90;99.90;;;;;;5012465;28;20505;-92
2022/07/28 09:01:03;;;;;;;0.10;0.10;;;18.20;99.90;;;;;;5024376;28;20438;-92
2022/07/28 09:03:29;;;;;;;0.10;0.10;;;18.10;99.90;;;;;;5022184;28;20454;-92
2022/07/28 09:05:56;;;;;;;0.10;0.10;;;17.90;99.90;;;;;;5019394;28;20437;-91
2022/07/28 09:08:22;;;;;;;0.10;0.10;;;17.80;99.90;;;;;;5025083;28;20193;-91
2022/07/28 09:10:48;;;;;;;0.10;0.10;;;17.60;99.90;;;;;;5031341;28;20501;-92
2022/07/28 09:13:15;;;;;;;0.10;0.10;;;17.70;99.90;;;;;;5027689;28;20450;-91
2022/07/28 09:15:43;;;;;;;0.10;0.10;;;17.60;99.90;;;;;;5026152;28;20441;-92
2022/07/28 09:18:09;;;;;;;0.10;0.10;;;17.90;99.90;;;;;;5014592;28;20537;-93
2022/07/28 09:20:39;;;;;;;0.10;0.10;;;17.90;99.90;;;;;;5010836;28;21092;-93
2022/07/28 09:23:07;;;;;;;0.10;0.10;;;18.10;99.90;;;;;;5011958;28;20183;-91
2022/07/28 09:25:33;;;;;;;0.10;0.10;;;17.90;99.90;;;;;;5025984;28;20435;-91
2022/07/28 09:28:13;;;;;;;0.10;0.10;;;17.90;99.90;;;;;;5026136;28;20450;-91
2022/07/28 09:30:45;;;;;;;0.10;0.10;;;18.10;99.90;;;;;;5027710;28;20996;-93
2022/07/28 09:33:31;;;;;;;0.10;0.10;;;18.10;99.90;;;;;;5020739;28;20453;-92
2022/07/28 09:35:58;;;;;;;0.10;0.10;;;18.30;99.90;;;;;;5022654;28;20488;-92
2022/07/28 09:38:26;;;;;;;0.10;0.10;;;18.50;99.90;;;;;;5026207;28;20793;-92
2022/07/28 09:41:00;;;;;;;0.10;0.10;;;18.60;99.90;;;;;;5029745;28;20434;-91
2022/07/28 09:43:41;;;;;;;0.10;0.10;;;19.20;99.90;;;;;;5022036;28;20939;-94
2022/07/28 09:46:08;;;;;;;0.10;0.10;;;19.30;99.90;;;;;;5019951;28;20462;-93
2022/07/28 09:48:48;;;;;;;0.10;0.10;;;18.80;99.90;;;;;;5007624;28;20461;-92
2022/07/28 09:51:16;;;;;;;0.10;0.10;;;18.50;99.90;;;;;;5023528;28;20474;-92
2022/07/28 09:53:43;;;;;;;0.10;0.10;;;18.40;99.90;;;;;;5021384;28;20438;-92
2022/07/28 09:56:09;;;;;;;0.10;0.10;;;18.40;99.90;;;;;;5027352;28;20946;-91
2022/07/28 09:58:36;;;;;;;0.10;0.10;;;18.40;99.90;;;;;;5020186;28;20977;-91
2022/07/28 10:01:09;;;;;;;0.10;0.10;;;18.50;99.90;;;;;;5027375;28;20443;-91
2022/07/28 10:03:36;;;;;;;0.10;0.10;;;18.50;99.90;;;;;;5024363;28;20426;-89
2022/07/28 10:06:06;;;;;;;0.10;0.10;;;18.20;99.90;;;;;;5032650;28;20448;-90
2022/07/28 10:08:48;;;;;;;0.10;0.10;;;17.90;99.90;;;;;;5025019;28;20436;-91
2022/07/28 10:11:16;;;;;;;0.10;0.10;;;17.80;99.90;;;;;;5027761;28;20951;-90
2022/07/28 10:13:57;;;;;;;0.10;0.10;;;17.80;99.90;;;;;;5022061;28;20942;-91
2022/07/28 10:16:24;;;;;;;0.10;0.10;;;17.80;99.90;;;;;;5027931;28;20454;-89
2022/07/28 10:18:50;;;;;;;0.10;0.10;;;17.60;99.90;;;;;;5024305;28;20438;-88
2022/07/28 10:21:17;;;;;;;0.10;0.10;;;17.60;99.90;;;;;;5028822;28;20446;-87
2022/07/28 10:23:51;;;;;;;0.10;0.10;;;17.70;99.90;;;;;;5026587;28;20189;-87
2022/07/28 10:26:18;;;;;;;0.10;0.10;;;17.70;99.90;;;;;;5013289;28;20457;-87
2022/07/28 10:28:49;;;;;;;0.10;0.10;;;18.00;99.90;;;;;;5025611;28;20431;-86
2022/07/28 10:31:34;;;;;;;0.10;0.10;;;18.00;99.90;;;;;;5016435;28;20514;-86
2022/07/28 10:34:02;;;;;;;0.10;0.10;;;18.10;99.90;;;;;;5023575;28;20438;-88
2022/07/28 10:36:29;;;;;;;0.10;0.10;;;18.20;99.90;;;;;;5029881;28;20540;-87
2022/07/28 10:39:02;;;;;;;0.10;0.10;;;18.20;99.90;;;;;;5018443;28;20952;-88
2022/07/28 10:41:35;;;;;;;0.10;0.10;;;18.50;99.90;;;;;;5010310;28;20446;-86
2022/07/28 10:44:02;;;;;;;0.10;0.10;;;19.50;99.90;;;;;;5027252;28;20443;-86
2022/07/28 10:46:29;;;;;;;0.10;0.10;;;19.40;99.90;;;;;;5022044;28;20462;-88
2022/07/28 10:48:55;;;;;;;0.10;0.10;;;19.20;99.90;;;;;;5024257;28;20450;-86
2022/07/28 10:51:21;;;;;;;0.10;0.10;;;18.70;99.90;;;;;;5031835;28;20480;-86
2022/07/28 10:53:53;;;;;;;0.10;0.00;;;18.30;99.90;;;;;;5019850;28;20454;-86
2022/07/28 10:56:32;;;;;;;0.10;0.10;;;18.20;99.90;;;;;;5012871;28;20196;-85
2022/07/28 10:59:22;;;;;;;0.10;0.10;;;18.40;99.90;;;;;;5028230;28;20477;-86
2022/07/28 11:01:47;;;;;;;0.10;0.10;;;18.10;99.90;;;;;;5016841;28;20446;-86
2022/07/28 11:05:02;;;;;;;0.10;0.10;;;18.00;99.90;;;;;;5024233;28;20438;-86
2022/07/28 11:07:38;;;;;;;0.10;0.10;;;18.40;99.90;;;;;;4977232;28;20232;-86
2022/07/28 11:10:18;;;;;;;0.10;0.10;;;18.70;99.90;;;;;;5012956;28;20463;-86
2022/07/28 11:12:45;;;;;;;0.10;0.10;;;18.70;99.90;;;;;;5027989;28;20514;-86
2022/07/28 11:15:46;;;;;;;0.10;0.10;;;18.90;99.90;;;;;;5024925;28;20792;-86
2022/07/28 11:18:12;;;;;;;0.10;0.10;;;19.10;99.90;;;;;;4922004;29;20443;-87
2022/07/28 11:20:55;;;;;;;0.10;0.10;;;19.30;99.90;;;;;;4999128;28;20473;-86
2022/07/28 11:23:45;;;;;;;0.10;0.10;;;19.10;99.90;;;;;;5027461;28;20202;-87
2022/07/28 11:26:20;;;;;;;0.10;0.00;;;19.30;99.90;;;;;;5029277;28;20446;-87
2022/07/28 11:29:07;;;;;;;0.10;0.00;;;19.90;99.90;;;;;;5009911;28;20438;-87
2022/07/28 11:31:47;;;;;;;0.10;0.00;;;20.10;99.90;;;;;;5028454;28;20719;-87
2022/07/28 11:34:18;;;;;;;0.10;0.00;;;19.30;99.90;;;;;;5028215;28;20450;-87
2022/07/28 11:37:04;;;;;;;0.10;0.00;;;19.20;99.90;;;;;;5003474;28;20446;-87
2022/07/28 11:39:34;;;;;;;0.10;0.10;;;19.00;99.90;;;;;;5017871;28;20435;-86
2022/07/28 11:42:24;;;;;;;0.10;0.10;;;18.50;99.90;;;;;;5028745;28;20438;-87
2022/07/28 11:44:50;;;;;;;0.10;0.10;;;18.40;99.90;;;;;;5026741;28;20940;-85
2022/07/28 11:47:17;;;;;;;0.10;0.10;;;18.40;99.90;;;;;;5019227;28;20447;-86
2022/07/28 11:49:43;;;;;;;0.10;0.10;;;18.60;99.90;;;;;;5001632;28;20186;-87
2022/07/28 11:52:14;;;;;;;0.10;0.10;;;18.70;99.90;;;;;;5029397;28;20458;-88
2022/07/28 11:54:42;;;;;;;0.10;0.10;;;18.60;99.90;;;;;;5026387;28;20580;-87
2022/07/28 11:57:08;;;;;;;0.10;0.10;;;18.60;99.90;;;;;;5008147;28;20464;-87
2022/07/28 11:59:49;;;;;;;0.10;0.10;;;18.70;99.90;;;;;;5008017;28;20481;-88
2022/07/28 12:02:16;;;;;;;0.10;0.10;;;18.50;99.90;;;;;;5025725;28;20434;-86
2022/07/28 12:04:42;;;;;;;0.10;0.10;;;18.50;99.90;;;;;;5020585;28;20808;-87
2022/07/28 12:07:09;;;;;;;0.10;0.10;;;18.30;99.90;;;;;;5029013;28;20454;-88
2022/07/28 12:09:36;;;;;;;0.10;0.10;;;18.50;99.90;;;;;;5006037;28;20551;-88
2022/07/28 12:12:02;;;;;;;0.10;0.10;;;18.70;99.90;;;;;;5009446;28;20501;-87
2022/07/28 12:14:28;;;;;;;0.10;0.10;;;18.60;99.90;;;;;;5021383;28;20465;-87
2022/07/28 12:16:54;;;;;;;0.10;0.10;;;18.70;99.90;;;;;;5025298;28;20446;-88
2022/07/28 12:19:21;;;;;;;0.10;0.10;;;19.00;99.90;;;;;;5008755;28;20468;-86
2022/07/28 12:21:52;;;;;;;0.10;0.10;;;19.20;99.90;;;;;;5028713;28;20446;-86
2022/07/28 12:24:29;;;;;;;0.10;0.00;;;19.30;99.90;;;;;;5016417;28;20438;-88
2022/07/28 12:26:56;;;;;;;0.10;0.00;;;19.40;99.90;;;;;;5026634;28;20434;-89
2022/07/28 12:29:22;;;;;;;0.10;0.00;;;19.30;99.90;;;;;;5022973;28;20445;-87
2022/07/28 12:32:00;;;;;;;0.10;0.00;;;19.60;99.90;;;;;;5019347;28;20495;-87
2022/07/28 12:34:27;;;;;;;0.10;0.00;;;19.80;99.90;;;;;;5026535;28;20581;-88
2022/07/28 12:37:00;;;;;;;0.10;0.00;;;20.20;99.90;;;;;;5020674;28;21031;-89
2022/07/28 12:39:27;;;;;;;0.10;0.00;;;20.50;99.90;;;;;;5019277;28;20450;-88
2022/07/28 12:42:06;;;;;;;0.10;0.00;;;20.50;99.90;;;;;;5003842;28;20454;-86
2022/07/28 12:44:34;;;;;;;0.10;0.00;;;21.00;99.90;;;;;;5009522;28;20446;-86
2022/07/28 12:46:59;;;;;;;0.10;0.00;;;21.20;99.90;;;;;;5017734;28;20452;-85
2022/07/28 12:49:25;;;;;;;0.10;0.00;;;21.00;99.90;;;;;;5010802;28;20427;-86
2022/07/28 12:51:50;;;;;;;0.10;0.00;;;21.20;99.90;;;;;;5023835;28;20215;-85
2022/07/28 12:54:16;;;;;;;0.10;0.00;;;21.00;99.90;;;;;;5022470;28;20187;-85
2022/07/28 12:56:52;;;;;;;0.10;0.10;;;21.00;99.90;;;;;;5025214;28;20183;-85
2022/07/28 12:59:19;;;;;;;0.10;0.00;;;20.80;99.90;;;;;;5025695;28;20239;-85